Islander Express — WCJ6211 — position and weather

sailwx.info

Track history (hours):
 
Tides and Currents Weather Stations Pressure Air Temp Water Temp Dewpoint Dewpoint Depression Visibility Wind Speed Wind Dir Waves Ship Positions

Islander Express

Owner: RGWT INC, Long Beach, CA. More information available from US FCC via Universal Licensing System and Coast Guard Vessel Documentation Center.

Last reported at 2017-Dec-03 22:27 UTC. Time now 2017-Dec-14 06:28 UTC.
Position N 33°32' W 118°24'.
Warning: this ship's position is 10 days out of date.

Length 37 m; draft 1.6 m.

Type: High speed craft. MMSI: 366943970.

Date/timePositionNaut miles runAvg speedWind from/ knotsBaromVisibWave heightAir tempDewpointWater temp
2017-Dec-03 22:27N 33°32' W 118°24'6 4.7
2017-Dec-03 21:05N 33°26' W 118°26'7 7.9
2017-Dec-03 20:10N 33°22' W 118°19'727.6
2017-Dec-03 19:55N 33°28' W 118°17'14 0.8
2017-Dec-03 01:51N 33°41' W 118°11'18 2.5
2017-Dec-02 18:37N 33°24' W 118°04'326.0
2017-Dec-02 18:30N 33°25' W 118°00'1325.7
2017-Dec-02 18:01N 33°27' W 117°45'3 6.3
2017-Dec-02 17:30N 33°28' W 117°42'0 0.0
2017-Dec-02 17:00N 33°28' W 117°42'0 0.0
2017-Dec-02 03:22N 33°28' W 117°42'0 0.0
2017-Dec-02 03:00N 33°28' W 117°42'0 0.0
2017-Dec-02 02:28N 33°28' W 117°42'0 0.0
2017-Dec-02 02:00N 33°28' W 117°42'611.7
2017-Dec-02 01:30N 33°25' W 117°48'2110.8
2017-Dec-01 23:35N 33°22' W 118°12'226.3
2017-Dec-01 23:30N 33°22' W 118°10'1426.5
2017-Dec-01 22:59N 33°25' W 117°54'1122.1
2017-Dec-01 22:30N 33°28' W 117°42'0 0.0
2017-Dec-01 22:00N 33°28' W 117°42'0 0.0
2017-Dec-01 21:30N 33°28' W 117°42'0 1.0
2017-Dec-01 21:01N 33°27' W 117°41'1427.3
2017-Dec-01 20:30N 33°24' W 117°58'7 2.8
2017-Dec-01 18:07N 33°26' W 117°50'726.2
2017-Dec-01 17:51N 33°27' W 117°42'1 1.6
2017-Dec-01 17:19N 33°28' W 117°42'0 0.0
2017-Dec-01 16:55N 33°28' W 117°42'0 0.1
2017-Dec-01 16:30N 33°28' W 117°41'0 0.0
2017-Dec-01 02:17N 33°28' W 117°42'0 0.1
2017-Dec-01 01:47N 33°28' W 117°41'620.6
2017-Dec-01 01:30N 33°26' W 117°48'2710.6
2017-Nov-30 22:59N 33°21' W 118°20'0 0.0
2017-Nov-30 22:26N 33°21' W 118°20'0 0.0
2017-Nov-30 20:31N 33°21' W 118°20'0 0.0
2017-Nov-30 20:29N 33°21' W 118°20'0 0.0
2017-Nov-30 19:52N 33°21' W 118°20'2 2.0
2017-Nov-30 18:59N 33°21' W 118°18'2227.0
2017-Nov-30 18:09N 33°25' W 117°51'526.7
2017-Nov-30 17:58N 33°26' W 117°46'4 7.8
2017-Nov-30 17:30N 33°28' W 117°42'0 0.0
2017-Nov-30 17:00N 33°28' W 117°42'0 0.0
2017-Nov-30 01:50N 33°28' W 117°42'516.5
2017-Nov-30 01:30N 33°26' W 117°48'27 6.5
2017-Nov-29 21:22N 33°21' W 118°20'0 0.0
2017-Nov-29 21:00N 33°21' W 118°20'0 0.0
2017-Nov-29 20:29N 33°21' W 118°20'0 0.0
2017-Nov-29 19:59N 33°21' W 118°20'0 0.0
2017-Nov-29 19:28N 33°21' W 118°20'3 4.7
2017-Nov-29 18:56N 33°21' W 118°17'1126.6
2017-Nov-29 18:30N 33°23' W 118°03'19 1.1
2017-Nov-29 02:06N 33°28' W 117°42'0 0.0
2017-Nov-29 02:00N 33°28' W 117°42'714.4
2017-Nov-29 01:30N 33°24' W 117°49'1325.8
2017-Nov-29 01:00N 33°22' W 118°04'1320.1
2017-Nov-29 00:22N 33°21' W 118°19'0 0.3
2017-Nov-28 23:53N 33°21' W 118°19'2 5.2
2017-Nov-28 23:30N 33°19' W 118°18'1 0.2
2017-Nov-28 19:37N 33°20' W 118°18'1 2.9
2017-Nov-28 19:10N 33°21' W 118°19'318.1
2017-Nov-28 19:00N 33°22' W 118°16'1325.8
2017-Nov-28 18:30N 33°25' W 118°01'1325.9
2017-Nov-28 18:01N 33°27' W 117°46'4 6.9
2017-Nov-28 17:28N 33°28' W 117°42'0 0.0
2017-Nov-28 01:52N 33°27' W 117°42'0 0.0
2017-Nov-27 16:58N 33°28' W 117°41'0 0.0
2017-Nov-27 16:30N 33°28' W 117°41'0 0.0
2017-Nov-27 03:07N 33°28' W 117°42'0 0.0
2017-Nov-27 02:59N 33°28' W 117°42'15 4.1
2017-Nov-26 23:11N 33°24' W 117°60'626.8
2017-Nov-26 22:57N 33°25' W 117°52'917.3
2017-Nov-26 22:26N 33°28' W 117°42'0 0.0
2017-Nov-26 22:00N 33°28' W 117°42'0 0.0
2017-Nov-26 21:30N 33°28' W 117°42'815.1
2017-Nov-26 21:01N 33°25' W 117°50'4 1.5
2017-Nov-26 18:15N 33°25' W 117°55'626.5
2017-Nov-26 18:00N 33°26' W 117°47'510.0
2017-Nov-26 17:30N 33°28' W 117°42'0 0.0
2017-Nov-26 17:00N 33°28' W 117°42'0 0.0
2017-Nov-26 16:30N 33°28' W 117°42'0 0.0
2017-Nov-26 16:00N 33°28' W 117°42'0 0.0
2017-Nov-26 03:17N 33°28' W 117°42'0 0.0
2017-Nov-26 03:01N 33°28' W 117°42'0 0.0
2017-Nov-26 02:30N 33°28' W 117°42'0 0.0
2017-Nov-26 02:01N 33°28' W 117°42'713.7
2017-Nov-26 01:30N 33°26' W 117°50'1424.9
2017-Nov-26 00:58N 33°23' W 118°06'1223.5
2017-Nov-26 00:27N 33°21' W 118°19'0 0.0
2017-Nov-26 00:00N 33°21' W 118°19'816.2
2017-Nov-25 23:30N 33°23' W 118°10'1425.5
2017-Nov-25 22:57N 33°25' W 117°54'1022.8
2017-Nov-25 22:30N 33°27' W 117°42'0 0.3
2017-Nov-25 22:00N 33°28' W 117°42'0 0.0
2017-Nov-25 21:30N 33°28' W 117°42'4 7.7
2017-Nov-25 21:00N 33°26' W 117°46'1625.2
2017-Nov-25 20:23N 33°23' W 118°04'1310.9
2017-Nov-25 19:13N 33°21' W 118°19'316.6
2017-Nov-25 19:00N 33°22' W 118°15'1325.0
2017-Nov-25 18:28N 33°24' W 117°60'1325.2
2017-Nov-25 17:58N 33°26' W 117°44'3 5.8
2017-Nov-25 17:30N 33°28' W 117°42'0 0.0
2017-Nov-25 01:55N 33°28' W 117°42'717.4
2017-Nov-25 01:30N 33°25' W 117°49'2312.9
2017-Nov-24 23:44N 33°22' W 118°16'625.5
2017-Nov-24 23:29N 33°23' W 118°09'1326.1
2017-Nov-24 23:00N 33°25' W 117°54'1121.7
2017-Nov-24 22:30N 33°28' W 117°42'0 0.0
2017-Nov-24 22:00N 33°28' W 117°42'0 0.0
2017-Nov-24 21:30N 33°28' W 117°42'2 4.5
2017-Nov-24 21:00N 33°26' W 117°44'3025.9
2017-Nov-24 19:51N 33°21' W 118°19'1 1.4
2017-Nov-24 19:30N 33°21' W 118°19'3 5.6
2017-Nov-24 19:00N 33°22' W 118°16'2025.3
2017-Nov-24 18:14N 33°25' W 117°53'1024.9
2017-Nov-24 17:51N 33°27' W 117°42'1 1.6
2017-Nov-24 17:28N 33°28' W 117°42'0 0.1
2017-Nov-24 16:38N 33°28' W 117°41'0 0.0
2017-Nov-24 16:30N 33°28' W 117°41'0 0.0
2017-Nov-24 02:51N 33°28' W 117°42'0 0.0
2017-Nov-24 02:29N 33°28' W 117°42'0 0.0
2017-Nov-24 02:01N 33°28' W 117°42'611.3
2017-Nov-24 01:30N 33°26' W 117°48'  
Track history (hours):
 
Tides and Currents Weather Stations Pressure Air Temp Water Temp Dewpoint Dewpoint Depression Visibility Wind Speed Wind Dir Waves Ship Positions

Islander Express

Owner: RGWT INC, Long Beach, CA. More information available from US FCC via Universal Licensing System and Coast Guard Vessel Documentation Center.

Last reported at 2017-Dec-03 22:27 UTC. Time now 2017-Dec-14 06:28 UTC.
Position N 33°32' W 118°24'.
Warning: this ship's position is 10 days out of date.

Length 37 m; draft 1.6 m.

Type: High speed craft. MMSI: 366943970.

Date/timePositionNaut miles runAvg speedWind from/ knotsBaromVisibWave heightAir tempDewpointWater temp
2017-Dec-03 22:27N 33°32' W 118°24'6 4.7
2017-Dec-03 21:05N 33°26' W 118°26'7 7.9
2017-Dec-03 20:10N 33°22' W 118°19'727.6
2017-Dec-03 19:55N 33°28' W 118°17'14 0.8
2017-Dec-03 01:51N 33°41' W 118°11'18 2.5
2017-Dec-02 18:37N 33°24' W 118°04'326.0
2017-Dec-02 18:30N 33°25' W 118°00'1325.7
2017-Dec-02 18:01N 33°27' W 117°45'3 6.3
2017-Dec-02 17:30N 33°28' W 117°42'0 0.0
2017-Dec-02 17:00N 33°28' W 117°42'0 0.0
2017-Dec-02 03:22N 33°28' W 117°42'0 0.0
2017-Dec-02 03:00N 33°28' W 117°42'0 0.0
2017-Dec-02 02:28N 33°28' W 117°42'0 0.0
2017-Dec-02 02:00N 33°28' W 117°42'611.7
2017-Dec-02 01:30N 33°25' W 117°48'2110.8
2017-Dec-01 23:35N 33°22' W 118°12'226.3
2017-Dec-01 23:30N 33°22' W 118°10'1426.5
2017-Dec-01 22:59N 33°25' W 117°54'1122.1
2017-Dec-01 22:30N 33°28' W 117°42'0 0.0
2017-Dec-01 22:00N 33°28' W 117°42'0 0.0
2017-Dec-01 21:30N 33°28' W 117°42'0 1.0
2017-Dec-01 21:01N 33°27' W 117°41'1427.3
2017-Dec-01 20:30N 33°24' W 117°58'7 2.8
2017-Dec-01 18:07N 33°26' W 117°50'726.2
2017-Dec-01 17:51N 33°27' W 117°42'1 1.6
2017-Dec-01 17:19N 33°28' W 117°42'0 0.0
2017-Dec-01 16:55N 33°28' W 117°42'0 0.1
2017-Dec-01 16:30N 33°28' W 117°41'0 0.0
2017-Dec-01 02:17N 33°28' W 117°42'0 0.1
2017-Dec-01 01:47N 33°28' W 117°41'620.6
2017-Dec-01 01:30N 33°26' W 117°48'2710.6
2017-Nov-30 22:59N 33°21' W 118°20'0 0.0
2017-Nov-30 22:26N 33°21' W 118°20'0 0.0
2017-Nov-30 20:31N 33°21' W 118°20'0 0.0
2017-Nov-30 20:29N 33°21' W 118°20'0 0.0
2017-Nov-30 19:52N 33°21' W 118°20'2 2.0
2017-Nov-30 18:59N 33°21' W 118°18'2227.0
2017-Nov-30 18:09N 33°25' W 117°51'526.7
2017-Nov-30 17:58N 33°26' W 117°46'4 7.8
2017-Nov-30 17:30N 33°28' W 117°42'0 0.0
2017-Nov-30 17:00N 33°28' W 117°42'0 0.0
2017-Nov-30 01:50N 33°28' W 117°42'516.5
2017-Nov-30 01:30N 33°26' W 117°48'27 6.5
2017-Nov-29 21:22N 33°21' W 118°20'0 0.0
2017-Nov-29 21:00N 33°21' W 118°20'0 0.0
2017-Nov-29 20:29N 33°21' W 118°20'0 0.0
2017-Nov-29 19:59N 33°21' W 118°20'0 0.0
2017-Nov-29 19:28N 33°21' W 118°20'3 4.7
2017-Nov-29 18:56N 33°21' W 118°17'1126.6
2017-Nov-29 18:30N 33°23' W 118°03'19 1.1
2017-Nov-29 02:06N 33°28' W 117°42'0 0.0
2017-Nov-29 02:00N 33°28' W 117°42'714.4
2017-Nov-29 01:30N 33°24' W 117°49'1325.8
2017-Nov-29 01:00N 33°22' W 118°04'1320.1
2017-Nov-29 00:22N 33°21' W 118°19'0 0.3
2017-Nov-28 23:53N 33°21' W 118°19'2 5.2
2017-Nov-28 23:30N 33°19' W 118°18'1 0.2
2017-Nov-28 19:37N 33°20' W 118°18'1 2.9
2017-Nov-28 19:10N 33°21' W 118°19'318.1
2017-Nov-28 19:00N 33°22' W 118°16'1325.8
2017-Nov-28 18:30N 33°25' W 118°01'1325.9
2017-Nov-28 18:01N 33°27' W 117°46'4 6.9
2017-Nov-28 17:28N 33°28' W 117°42'0 0.0
2017-Nov-28 01:52N 33°27' W 117°42'0 0.0
2017-Nov-27 16:58N 33°28' W 117°41'0 0.0
2017-Nov-27 16:30N 33°28' W 117°41'0 0.0
2017-Nov-27 03:07N 33°28' W 117°42'0 0.0
2017-Nov-27 02:59N 33°28' W 117°42'15 4.1
2017-Nov-26 23:11N 33°24' W 117°60'626.8
2017-Nov-26 22:57N 33°25' W 117°52'917.3
2017-Nov-26 22:26N 33°28' W 117°42'0 0.0
2017-Nov-26 22:00N 33°28' W 117°42'0 0.0
2017-Nov-26 21:30N 33°28' W 117°42'815.1
2017-Nov-26 21:01N 33°25' W 117°50'4 1.5
2017-Nov-26 18:15N 33°25' W 117°55'626.5
2017-Nov-26 18:00N 33°26' W 117°47'510.0
2017-Nov-26 17:30N 33°28' W 117°42'0 0.0
2017-Nov-26 17:00N 33°28' W 117°42'0 0.0
2017-Nov-26 16:30N 33°28' W 117°42'0 0.0
2017-Nov-26 16:00N 33°28' W 117°42'0 0.0
2017-Nov-26 03:17N 33°28' W 117°42'0 0.0
2017-Nov-26 03:01N 33°28' W 117°42'0 0.0
2017-Nov-26 02:30N 33°28' W 117°42'0 0.0
2017-Nov-26 02:01N 33°28' W 117°42'713.7
2017-Nov-26 01:30N 33°26' W 117°50'1424.9
2017-Nov-26 00:58N 33°23' W 118°06'1223.5
2017-Nov-26 00:27N 33°21' W 118°19'0 0.0
2017-Nov-26 00:00N 33°21' W 118°19'816.2
2017-Nov-25 23:30N 33°23' W 118°10'1425.5
2017-Nov-25 22:57N 33°25' W 117°54'1022.8
2017-Nov-25 22:30N 33°27' W 117°42'0 0.3
2017-Nov-25 22:00N 33°28' W 117°42'0 0.0
2017-Nov-25 21:30N 33°28' W 117°42'4 7.7
2017-Nov-25 21:00N 33°26' W 117°46'1625.2
2017-Nov-25 20:23N 33°23' W 118°04'1310.9
2017-Nov-25 19:13N 33°21' W 118°19'316.6
2017-Nov-25 19:00N 33°22' W 118°15'1325.0
2017-Nov-25 18:28N 33°24' W 117°60'1325.2
2017-Nov-25 17:58N 33°26' W 117°44'3 5.8
2017-Nov-25 17:30N 33°28' W 117°42'0 0.0
2017-Nov-25 01:55N 33°28' W 117°42'717.4
2017-Nov-25 01:30N 33°25' W 117°49'2312.9
2017-Nov-24 23:44N 33°22' W 118°16'625.5
2017-Nov-24 23:29N 33°23' W 118°09'1326.1
2017-Nov-24 23:00N 33°25' W 117°54'1121.7
2017-Nov-24 22:30N 33°28' W 117°42'0 0.0
2017-Nov-24 22:00N 33°28' W 117°42'0 0.0
2017-Nov-24 21:30N 33°28' W 117°42'2 4.5
2017-Nov-24 21:00N 33°26' W 117°44'3025.9
2017-Nov-24 19:51N 33°21' W 118°19'1 1.4
2017-Nov-24 19:30N 33°21' W 118°19'3 5.6
2017-Nov-24 19:00N 33°22' W 118°16'2025.3
2017-Nov-24 18:14N 33°25' W 117°53'1024.9
2017-Nov-24 17:51N 33°27' W 117°42'1 1.6
2017-Nov-24 17:28N 33°28' W 117°42'0 0.1
2017-Nov-24 16:38N 33°28' W 117°41'0 0.0
2017-Nov-24 16:30N 33°28' W 117°41'0 0.0
2017-Nov-24 02:51N 33°28' W 117°42'0 0.0
2017-Nov-24 02:29N 33°28' W 117°42'0 0.0
2017-Nov-24 02:01N 33°28' W 117°42'611.3
2017-Nov-24 01:30N 33°26' W 117°48'  

Dump ship's entire track history